createdAt,value
2019-01-08T18:49:53.147Z,100089.56
2019-01-08T18:52:21.379Z,100095.55
2019-01-08T18:54:50.010Z,100108.79
2019-01-08T18:57:18.419Z,100109.27
2019-01-08T18:59:46.902Z,100105.33
2019-01-08T19:02:15.170Z,100117.88
2019-01-08T19:04:43.540Z,100114.70
2019-01-08T19:07:11.788Z,100120.38
2019-01-08T19:09:41.140Z,100125.08
2019-01-08T19:12:17.068Z,100121.95
2019-01-08T19:14:45.323Z,100132.33
2019-01-08T19:17:13.620Z,100136.59
2019-01-08T19:19:42.018Z,100134.70
2019-01-08T19:22:10.344Z,100140.90
2019-01-08T19:24:38.649Z,100147.78
2019-01-08T19:27:07.074Z,100146.48
2019-01-08T19:29:35.564Z,100141.26
2019-01-08T19:32:03.853Z,100150.87
2019-01-08T19:34:32.401Z,100150.83
2019-01-08T19:37:00.860Z,100160.56
2019-01-08T19:39:29.185Z,100164.39
2019-01-08T19:41:57.554Z,100169.62
2019-01-08T19:44:26.083Z,100167.41
2019-01-08T19:46:54.456Z,100179.27
2019-01-08T19:49:23.134Z,100180.00
2019-01-08T19:51:51.538Z,100184.34
2019-01-08T19:54:19.875Z,100182.24
2019-01-08T19:56:48.274Z,100184.92
2019-01-08T19:59:16.694Z,100184.89
2019-01-08T20:01:44.960Z,100187.31
2019-01-08T20:04:17.930Z,100193.28
2019-01-08T20:06:44.177Z,100199.31
2019-01-08T20:09:12.621Z,100196.25
2019-01-08T20:11:44.230Z,100211.70
2019-01-08T20:14:12.493Z,100204.86
2019-01-08T20:16:40.807Z,100216.37
2019-01-08T20:19:10.452Z,100222.77
2019-01-08T20:21:38.796Z,100229.83
2019-01-08T20:24:07.185Z,100229.25
2019-01-08T20:26:35.581Z,100238.22
2019-01-08T20:29:03.870Z,100233.03
2019-01-08T20:31:32.347Z,100244.52
2019-01-08T20:34:01.095Z,100252.50
2019-01-08T20:36:29.408Z,100262.05
2019-01-08T20:38:57.845Z,100263.34
2019-01-08T20:41:26.172Z,100270.69
2019-01-08T20:43:54.692Z,100265.77
2019-01-08T20:46:23.031Z,100265.51
2019-01-08T20:48:51.437Z,100287.90
2019-01-08T20:51:20.980Z,100288.37
2019-01-08T20:53:49.519Z,100289.33
2019-01-08T20:56:18.131Z,100299.11
2019-01-08T20:58:46.422Z,100305.23
2019-01-08T21:01:15.039Z,100301.92
2019-01-08T21:03:43.380Z,100312.99
2019-01-08T21:06:11.662Z,100312.14
2019-01-08T21:08:40.748Z,100309.58
2019-01-08T21:11:09.269Z,100314.78
2019-01-08T21:13:37.605Z,100324.55
2019-01-08T21:16:05.887Z,100324.10
2019-01-08T21:18:34.271Z,100325.11
2019-01-08T21:21:02.712Z,100334.56
2019-01-08T21:23:30.994Z,100333.74
2019-01-08T21:25:59.340Z,100344.95
2019-01-08T21:28:27.663Z,100348.30
2019-01-08T21:30:56.022Z,100362.52
2019-01-08T21:33:24.450Z,100350.00
2019-01-08T21:35:52.675Z,100360.39
2019-01-08T21:38:20.938Z,100367.98
2019-01-08T21:40:49.332Z,100376.64
2019-01-08T21:43:17.600Z,100374.55
2019-01-08T21:45:45.867Z,100380.89
2019-01-08T21:48:14.205Z,100387.61
2019-01-08T21:50:42.484Z,100394.63
2019-01-08T21:53:10.765Z,100400.07
2019-01-08T21:55:39.237Z,100397.27
2019-01-08T21:58:07.566Z,100407.09
2019-01-08T22:00:35.804Z,100404.81
2019-01-08T22:03:04.216Z,100403.23
2019-01-08T22:05:32.587Z,100427.77
2019-01-08T22:08:00.851Z,100420.07
2019-01-08T22:10:29.240Z,100426.86
2019-01-08T22:12:57.491Z,100428.61
2019-01-08T22:15:25.795Z,100423.47
2019-01-08T22:17:54.179Z,100425.58
2019-01-08T22:20:22.802Z,100437.56
2019-01-08T22:22:52.697Z,100424.28
2019-01-08T22:25:21.255Z,100434.52
2019-01-08T22:27:49.512Z,100439.86
2019-01-08T22:30:17.804Z,100442.47
2019-01-08T22:32:46.121Z,100441.65
2019-01-08T22:35:14.431Z,100452.35
2019-01-08T22:37:42.676Z,100457.08
2019-01-08T22:40:11.165Z,100462.59
2019-01-08T22:42:39.459Z,100472.08
2019-01-08T22:45:08.160Z,100472.94
2019-01-08T22:47:36.555Z,100478.95
2019-01-08T22:50:05.429Z,100489.50
2019-01-08T22:52:34.905Z,100485.28
2019-01-08T22:55:03.394Z,100501.67
2019-01-08T22:57:31.811Z,100497.84
2019-01-08T23:00:00.140Z,100502.96
2019-01-08T23:02:28.602Z,100509.44
2019-01-08T23:04:56.856Z,100514.13
2019-01-08T23:07:25.108Z,100510.70
2019-01-08T23:09:53.492Z,100518.45
2019-01-08T23:12:21.761Z,100520.55
2019-01-08T23:14:50.036Z,100529.56
2019-01-08T23:17:18.360Z,100528.73
2019-01-08T23:19:46.604Z,100537.65
2019-01-08T23:22:14.948Z,100529.98
2019-01-08T23:24:43.231Z,100537.69
2019-01-08T23:27:11.509Z,100553.16
2019-01-08T23:29:39.776Z,100546.28
2019-01-08T23:32:08.088Z,100551.84
2019-01-08T23:34:36.407Z,100565.63
2019-01-08T23:37:04.693Z,100567.33
2019-01-08T23:39:33.265Z,100573.28
2019-01-08T23:42:01.631Z,100578.55
2019-01-08T23:44:29.864Z,100588.07
2019-01-08T23:46:58.273Z,100586.33
2019-01-08T23:49:26.576Z,100592.39
2019-01-08T23:51:57.632Z,100588.53
2019-01-08T23:54:26.184Z,100591.11
2019-01-08T23:56:54.494Z,100598.30
2019-01-08T23:59:23.955Z,100607.78
